createdAt,value
2018-03-08T00:00:38.276Z,3.3
2018-03-08T00:01:28.931Z,3.3
2018-03-08T00:02:18.965Z,3.3
2018-03-08T00:03:09.325Z,3.3
2018-03-08T00:03:59.383Z,3.2
2018-03-08T00:04:48.875Z,3.2
2018-03-08T00:05:39.489Z,3.2
2018-03-08T00:06:29.548Z,3.2
2018-03-08T00:07:19.595Z,3.2
2018-03-08T00:08:09.409Z,3.2
2018-03-08T00:08:59.428Z,3.1
2018-03-08T00:09:49.487Z,3.1
2018-03-08T00:10:39.552Z,3.1
2018-03-08T00:11:29.614Z,3.1
2018-03-08T00:12:19.696Z,3.1
2018-03-08T00:13:09.997Z,3.1
2018-03-08T00:13:59.504Z,3.1
2018-03-08T00:14:49.931Z,3.1
2018-03-08T00:15:39.913Z,3.1
2018-03-08T00:16:29.960Z,3.1
2018-03-08T00:17:20.023Z,3.1
2018-03-08T00:18:10.407Z,3.1
2018-03-08T00:19:00.409Z,3
2018-03-08T00:19:50.491Z,3
2018-03-08T00:20:40.248Z,3
2018-03-08T00:21:30.028Z,3
2018-03-08T00:22:20.364Z,3
2018-03-08T00:23:10.350Z,3
2018-03-08T00:24:00.229Z,3
2018-03-08T00:24:50.544Z,2.9
2018-03-08T00:25:40.906Z,3
2018-03-08T00:26:30.966Z,3
2018-03-08T00:27:20.832Z,3
2018-03-08T00:28:10.797Z,3
2018-03-08T00:29:01.161Z,3
2018-03-08T00:29:50.942Z,2.9
2018-03-08T00:30:40.988Z,3
2018-03-08T00:31:30.827Z,3
2018-03-08T00:32:21.088Z,3
2018-03-08T00:33:11.185Z,3
2018-03-08T00:34:00.957Z,2.9
2018-03-08T00:34:50.871Z,2.9
2018-03-08T00:35:41.172Z,2.9
2018-03-08T00:36:30.892Z,2.9
2018-03-08T00:37:20.664Z,2.9
2018-03-08T00:38:11.226Z,2.9
2018-03-08T00:39:01.546Z,2.9
2018-03-08T00:39:51.606Z,2.9
2018-03-08T00:40:41.671Z,3
2018-03-08T00:41:31.750Z,2.9
2018-03-08T00:42:21.648Z,3
2018-03-08T00:43:11.864Z,3
2018-03-08T00:44:01.627Z,3
2018-03-08T00:44:52.073Z,3
2018-03-08T00:45:41.721Z,3
2018-03-08T00:46:31.685Z,3
2018-03-08T00:47:22.431Z,3
2018-03-08T00:48:12.075Z,3
2018-03-08T00:49:01.999Z,3.1
2018-03-08T00:49:52.648Z,3.1
2018-03-08T00:50:42.066Z,3.1
2018-03-08T00:51:31.905Z,3.1
2018-03-08T00:52:22.561Z,3.1
2018-03-08T00:53:12.650Z,3.1
2018-03-08T00:54:02.416Z,3.1
2018-03-08T00:54:52.682Z,3.1
2018-03-08T00:55:43.040Z,3.1
2018-03-08T00:56:32.213Z,3.1
2018-03-08T00:57:22.266Z,3.1
2018-03-08T00:58:12.613Z,3.1
2018-03-08T00:59:02.764Z,3.1
2018-03-08T00:59:53.334Z,3.1
2018-03-08T01:00:43.079Z,3.1
2018-03-08T01:01:33.125Z,3.1
2018-03-08T01:02:23.179Z,3.1
2018-03-08T01:03:13.256Z,3.1
2018-03-08T01:04:03.312Z,3.2
2018-03-08T01:04:53.699Z,3.2
2018-03-08T01:05:43.444Z,3.2
2018-03-08T01:06:33.286Z,3.2
2018-03-08T01:07:23.585Z,3.2
2018-03-08T01:08:13.306Z,3.3
2018-03-08T01:09:03.473Z,3.3
2018-03-08T01:09:53.989Z,3.3
2018-03-08T01:10:43.818Z,3.3
2018-03-08T01:11:33.852Z,3.3
2018-03-08T01:12:23.888Z,3.3
2018-03-08T01:13:13.926Z,3.3
2018-03-08T01:14:04.105Z,3.3
2018-03-08T01:14:54.340Z,3.3
2018-03-08T01:15:44.391Z,3.3
2018-03-08T01:16:33.987Z,3.3
2018-03-08T01:17:24.271Z,3.3
2018-03-08T01:18:14.035Z,3.3
2018-03-08T01:19:04.024Z,3.4
2018-03-08T01:19:54.428Z,3.4
2018-03-08T01:20:44.484Z,3.4
2018-03-08T01:21:34.048Z,3.4
2018-03-08T01:22:24.111Z,3.4
2018-03-08T01:23:14.066Z,3.4
2018-03-08T01:24:04.291Z,3.4
2018-03-08T01:24:54.771Z,3.4
2018-03-08T01:25:44.856Z,3.4
2018-03-08T01:26:34.596Z,3.4
2018-03-08T01:27:25.255Z,3.4
2018-03-08T01:28:15.028Z,3.4
2018-03-08T01:29:05.116Z,3.4
2018-03-08T01:29:55.130Z,3.4
2018-03-08T01:30:44.696Z,3.4
2018-03-08T01:31:35.046Z,3.4
2018-03-08T01:32:25.317Z,3.4
2018-03-08T01:33:15.668Z,3.4
2018-03-08T01:34:05.424Z,3.4
2018-03-08T01:34:55.197Z,3.4
2018-03-08T01:35:45.240Z,3.4
2018-03-08T01:36:35.598Z,3.4
2018-03-08T01:37:25.655Z,3.4
2018-03-08T01:38:15.999Z,3.4
2018-03-08T01:39:05.580Z,3.4
2018-03-08T01:39:55.806Z,3.4
2018-03-08T01:40:46.165Z,3.4
2018-03-08T01:41:35.742Z,3.4
2018-03-08T01:42:25.504Z,3.4
2018-03-08T01:43:15.753Z,3.4
2018-03-08T01:44:06.390Z,3.4
2018-03-08T01:44:56.083Z,3.4
2018-03-08T01:45:46.275Z,3.4
2018-03-08T01:46:36.112Z,3.5
2018-03-08T01:47:26.065Z,3.5
2018-03-08T01:48:16.415Z,3.6
2018-03-08T01:49:06.752Z,3.6
2018-03-08T01:49:56.553Z,3.6
2018-03-08T01:50:46.912Z,3.6
2018-03-08T01:51:36.660Z,3.6
2018-03-08T01:52:26.406Z,3.6
2018-03-08T01:53:16.766Z,3.6
2018-03-08T01:54:06.612Z,3.6
2018-03-08T01:54:56.644Z,3.6
2018-03-08T01:55:47.243Z,3.6
2018-03-08T01:56:36.989Z,3.6
2018-03-08T01:57:26.789Z,3.6
2018-03-08T01:58:16.844Z,3.6
2018-03-08T01:59:07.229Z,3.6
2018-03-08T01:59:57.023Z,3.6
2018-03-08T02:00:47.564Z,3.6
2018-03-08T02:01:37.639Z,3.6
2018-03-08T02:02:27.197Z,3.6
2018-03-08T02:03:17.191Z,3.6
2018-03-08T02:04:07.186Z,3.6
2018-03-08T02:04:57.575Z,3.6
2018-03-08T02:05:47.649Z,3.6
2018-03-08T02:06:37.468Z,3.6
2018-03-08T02:07:27.773Z,3.6
2018-03-08T02:08:17.828Z,3.6
2018-03-08T02:09:07.894Z,3.6
2018-03-08T02:09:57.919Z,3.6
2018-03-08T02:10:47.798Z,3.6
2018-03-08T02:11:38.044Z,3.6
2018-03-08T02:12:28.119Z,3.6
2018-03-08T02:13:18.162Z,3.6
2018-03-08T02:14:08.009Z,3.6
2018-03-08T02:14:57.993Z,3.6
2018-03-08T02:15:48.334Z,3.6
2018-03-08T02:16:38.235Z,3.6
2018-03-08T02:17:28.555Z,3.6
2018-03-08T02:18:18.532Z,3.6
2018-03-08T02:19:08.301Z,3.6
2018-03-08T02:19:58.236Z,3.6
2018-03-08T02:20:48.110Z,3.6
2018-03-08T02:21:38.744Z,3.6
2018-03-08T02:22:28.820Z,3.6
2018-03-08T02:23:18.374Z,3.6
2018-03-08T02:24:08.729Z,3.6
2018-03-08T02:24:58.700Z,3.6
2018-03-08T02:25:49.339Z,3.6
2018-03-08T02:26:38.864Z,3.6
2018-03-08T02:27:29.141Z,3.6
2018-03-08T02:28:18.933Z,3.6
2018-03-08T02:29:08.995Z,3.6
2018-03-08T02:29:59.337Z,3.6
2018-03-08T02:30:49.397Z,3.6
2018-03-08T02:31:39.060Z,3.6
2018-03-08T02:32:29.521Z,3.6
2018-03-08T02:33:19.269Z,3.6
2018-03-08T02:34:09.350Z,3.6
2018-03-08T02:34:59.168Z,3.6
2018-03-08T02:35:49.741Z,3.6
2018-03-08T02:36:39.211Z,3.6
2018-03-08T02:37:29.388Z,3.6
2018-03-08T02:38:19.639Z,3.6
2018-03-08T02:39:09.978Z,3.6
2018-03-08T02:40:00.394Z,3.6
2018-03-08T02:40:49.903Z,3.6
2018-03-08T02:41:40.160Z,3.6
2018-03-08T02:42:29.527Z,3.6
2018-03-08T02:43:19.995Z,3.6
2018-03-08T02:44:10.328Z,3.6
2018-03-08T02:45:00.675Z,3.6
2018-03-08T02:45:50.164Z,3.6
2018-03-08T02:46:40.513Z,3.6
2018-03-08T02:47:30.570Z,3.7
2018-03-08T02:48:20.900Z,3.6
2018-03-08T02:49:10.719Z,3.6
2018-03-08T02:50:01.083Z,3.7
2018-03-08T02:50:51.119Z,3.7
2018-03-08T02:51:40.864Z,3.7
2018-03-08T02:52:30.674Z,3.7
2018-03-08T02:53:21.253Z,3.7
2018-03-08T02:54:11.066Z,3.7
2018-03-08T02:55:00.897Z,3.7
2018-03-08T02:55:50.947Z,3.7
2018-03-08T02:56:40.621Z,3.7
2018-03-08T02:57:30.975Z,3.7
2018-03-08T02:58:21.139Z,3.7
2018-03-08T02:59:11.439Z,3.7
2018-03-08T03:00:01.431Z,3.7
2018-03-08T03:00:51.775Z,3.7
2018-03-08T03:01:41.552Z,3.7
2018-03-08T03:02:31.619Z,3.7
2018-03-08T03:03:21.674Z,3.7
2018-03-08T03:04:12.020Z,3.7
2018-03-08T03:05:02.080Z,3.7
2018-03-08T03:05:51.349Z,3.7
2018-03-08T03:06:41.675Z,3.7
2018-03-08T03:07:31.683Z,3.7
2018-03-08T03:08:21.737Z,3.7
2018-03-08T03:09:12.129Z,3.7
2018-03-08T03:10:02.172Z,3.7
2018-03-08T03:10:51.919Z,3.7
2018-03-08T03:11:42.234Z,3.7
2018-03-08T03:12:32.321Z,3.7
2018-03-08T03:13:22.658Z,3.7
2018-03-08T03:14:12.142Z,3.7
2018-03-08T03:15:02.208Z,3.7
2018-03-08T03:15:52.559Z,3.7
2018-03-08T03:16:42.627Z,3.7
2018-03-08T03:17:32.384Z,3.7
2018-03-08T03:18:22.987Z,3.7
2018-03-08T03:19:13.054Z,3.7
2018-03-08T03:20:03.162Z,3.7
2018-03-08T03:20:52.886Z,3.7
2018-03-08T03:21:42.671Z,3.7
2018-03-08T03:22:33.274Z,3.7
2018-03-08T03:23:23.333Z,3.7
2018-03-08T03:24:13.395Z,3.7
2018-03-08T03:25:02.881Z,3.6
2018-03-08T03:25:53.051Z,3.7
2018-03-08T03:26:43.301Z,3.7
2018-03-08T03:27:33.347Z,3.6
2018-03-08T03:28:23.718Z,3.6
2018-03-08T03:29:13.476Z,3.6
2018-03-08T03:30:03.858Z,3.6
2018-03-08T03:30:53.306Z,3.6
2018-03-08T03:31:43.169Z,3.6
2018-03-08T03:32:33.728Z,3.6
2018-03-08T03:33:24.053Z,3.6
2018-03-08T03:34:13.825Z,3.6
2018-03-08T03:35:03.894Z,3.6
2018-03-08T03:35:54.233Z,3.6
2018-03-08T03:36:43.693Z,3.6
2018-03-08T03:37:34.070Z,3.6
2018-03-08T03:38:23.548Z,3.6
2018-03-08T03:39:14.458Z,3.6
2018-03-08T03:40:03.757Z,3.6
2018-03-08T03:40:54.295Z,3.6
2018-03-08T03:41:44.073Z,3.6
2018-03-08T03:42:34.402Z,3.6
2018-03-08T03:43:24.475Z,3.6
2018-03-08T03:44:14.335Z,3.6
2018-03-08T03:45:04.585Z,3.6
2018-03-08T03:45:54.938Z,3.6
2018-03-08T03:46:44.690Z,3.5
2018-03-08T03:47:35.034Z,3.6
2018-03-08T03:48:24.802Z,3.5
2018-03-08T03:49:15.188Z,3.5
2018-03-08T03:50:04.945Z,3.5
2018-03-08T03:50:55.264Z,3.5
2018-03-08T03:51:45.340Z,3.5
2018-03-08T03:52:35.384Z,3.5
2018-03-08T03:53:25.439Z,3.5
2018-03-08T03:54:15.219Z,3.5
2018-03-08T03:55:05.572Z,3.5
2018-03-08T03:55:55.051Z,3.5
2018-03-08T03:56:44.725Z,3.4
2018-03-08T03:57:35.465Z,3.4
2018-03-08T03:58:25.517Z,3.4
2018-03-08T03:59:15.618Z,3.4
2018-03-08T04:00:05.922Z,3.4
2018-03-08T04:00:55.214Z,3.4
2018-03-08T04:01:45.564Z,3.4
2018-03-08T04:02:35.524Z,3.4
2018-03-08T04:03:25.888Z,3.4
2018-03-08T04:04:15.537Z,3.4
2018-03-08T04:05:05.717Z,3.4
2018-03-08T04:05:55.762Z,3.4
2018-03-08T04:06:46.124Z,3.4
2018-03-08T04:07:36.471Z,3.4
2018-03-08T04:08:25.933Z,3.4
2018-03-08T04:09:16.291Z,3.4
2018-03-08T04:10:06.156Z,3.4
2018-03-08T04:10:56.497Z,3.4
2018-03-08T04:11:46.545Z,3.4
2018-03-08T04:12:36.791Z,3.4
2018-03-08T04:13:26.280Z,3.4
2018-03-08T04:14:16.227Z,3.4
2018-03-08T04:15:06.409Z,3.4
2018-03-08T04:15:56.468Z,3.4
2018-03-08T04:16:46.785Z,3.4
2018-03-08T04:17:36.870Z,3.4
2018-03-08T04:18:26.620Z,3.4
2018-03-08T04:19:16.698Z,3.4
2018-03-08T04:20:07.038Z,3.4
2018-03-08T04:20:56.829Z,3.4
2018-03-08T04:21:46.873Z,3.4
2018-03-08T04:22:37.098Z,3.4
2018-03-08T04:23:26.811Z,3.4
2018-03-08T04:24:17.338Z,3.4
2018-03-08T04:25:07.388Z,3.4
2018-03-08T04:25:57.458Z,3.4
2018-03-08T04:26:47.033Z,3.4
2018-03-08T04:27:37.847Z,3.4
2018-03-08T04:28:27.921Z,3.4
2018-03-08T04:29:17.392Z,3.4
2018-03-08T04:30:07.346Z,3.4
2018-03-08T04:30:57.713Z,3.4
2018-03-08T04:31:47.658Z,3.4
2018-03-08T04:32:37.916Z,3.4
2018-03-08T04:33:27.996Z,3.4
2018-03-08T04:34:18.311Z,3.4
2018-03-08T04:35:07.870Z,3.4
2018-03-08T04:35:57.877Z,3.4
2018-03-08T04:36:48.226Z,3.4
2018-03-08T04:37:38.552Z,3.4
2018-03-08T04:38:28.215Z,3.4
2018-03-08T04:39:18.381Z,3.4
2018-03-08T04:40:08.708Z,3.4
2018-03-08T04:40:58.308Z,3.4
2018-03-08T04:41:48.455Z,3.4
2018-03-08T04:42:38.897Z,3.4
2018-03-08T04:43:28.092Z,3.4
2018-03-08T04:44:18.763Z,3.4
2018-03-08T04:45:08.785Z,3.4
2018-03-08T04:45:58.862Z,3.4
2018-03-08T04:46:48.727Z,3.4
2018-03-08T04:47:39.233Z,3.4
2018-03-08T04:48:29.033Z,3.4
2018-03-08T04:49:18.880Z,3.4
2018-03-08T04:50:08.872Z,3.4
2018-03-08T04:50:59.523Z,3.4
2018-03-08T04:51:48.692Z,3.4
2018-03-08T04:52:39.307Z,3.4
2018-03-08T04:53:29.183Z,3.4
2018-03-08T04:54:19.293Z,3.4
2018-03-08T04:55:09.210Z,3.4
2018-03-08T04:55:58.971Z,3.4
2018-03-08T04:56:49.887Z,3.4
2018-03-08T04:57:39.944Z,3.4
2018-03-08T04:58:29.542Z,3.4
2018-03-08T04:59:19.079Z,3.5
2018-03-08T05:00:10.116Z,3.5
2018-03-08T05:01:00.194Z,3.4
2018-03-08T05:01:49.676Z,3.5
2018-03-08T05:02:39.431Z,3.5
2018-03-08T05:03:29.879Z,3.5
2018-03-08T05:04:19.636Z,3.5
2018-03-08T05:05:10.193Z,3.5
2018-03-08T05:06:00.259Z,3.5
2018-03-08T05:06:50.581Z,3.5
2018-03-08T05:07:40.341Z,3.6
2018-03-08T05:08:30.124Z,3.6
2018-03-08T05:09:20.499Z,3.6
2018-03-08T05:10:10.638Z,3.6
2018-03-08T05:11:00.314Z,3.6
2018-03-08T05:11:50.374Z,3.6
2018-03-08T05:12:40.728Z,3.6
2018-03-08T05:13:30.746Z,3.6
2018-03-08T05:14:21.125Z,3.6
2018-03-08T05:15:11.190Z,3.6
2018-03-08T05:16:01.232Z,3.6
2018-03-08T05:16:50.892Z,3.6
2018-03-08T05:17:41.063Z,3.6
2018-03-08T05:18:30.549Z,3.6
2018-03-08T05:19:21.155Z,3.6
2018-03-08T05:20:11.237Z,3.6
2018-03-08T05:21:01.296Z,3.6
2018-03-08T05:21:51.648Z,3.6
2018-03-08T05:22:40.906Z,3.6
2018-03-08T05:23:31.551Z,3.6
2018-03-08T05:24:21.584Z,3.6
2018-03-08T05:25:11.586Z,3.6
2018-03-08T05:26:01.951Z,3.7
2018-03-08T05:26:51.703Z,3.7
2018-03-08T05:27:41.261Z,3.7
2018-03-08T05:28:31.822Z,3.7
2018-03-08T05:29:21.601Z,3.7
2018-03-08T05:30:11.449Z,3.8
2018-03-08T05:31:02.011Z,3.7
2018-03-08T05:31:52.333Z,3.8
2018-03-08T05:32:41.816Z,3.8
2018-03-08T05:33:32.443Z,3.8
2018-03-08T05:34:22.209Z,3.8
2018-03-08T05:35:12.280Z,3.8
2018-03-08T05:36:02.608Z,3.8
2018-03-08T05:36:52.401Z,3.8
2018-03-08T05:37:42.723Z,3.9
2018-03-08T05:38:32.505Z,3.9
2018-03-08T05:39:22.571Z,3.9
2018-03-08T05:40:12.918Z,3.9
2018-03-08T05:41:03.000Z,3.9
2018-03-08T05:41:52.757Z,3.9
2018-03-08T05:42:43.125Z,3.9
2018-03-08T05:43:33.139Z,4
2018-03-08T05:44:22.624Z,4
2018-03-08T05:45:13.269Z,4
2018-03-08T05:46:03.027Z,4
2018-03-08T05:46:53.097Z,4.1
2018-03-08T05:47:43.155Z,4.1
2018-03-08T05:48:33.007Z,4.1
2018-03-08T05:49:22.996Z,4.1
2018-03-08T05:50:13.326Z,4.1
2018-03-08T05:51:03.405Z,4.2
2018-03-08T05:51:52.947Z,4.2
2018-03-08T05:52:43.307Z,4.2
2018-03-08T05:53:33.826Z,4.2
2018-03-08T05:54:23.260Z,4.3
2018-03-08T05:55:13.084Z,4.3
2018-03-08T05:56:03.532Z,4.3
2018-03-08T05:56:53.786Z,4.3
2018-03-08T05:57:43.534Z,4.4
2018-03-08T05:58:33.386Z,4.4
2018-03-08T05:59:23.660Z,4.4
2018-03-08T06:00:14.031Z,4.5
2018-03-08T06:01:03.806Z,4.5
2018-03-08T06:01:53.645Z,4.6
2018-03-08T06:02:43.959Z,4.6
2018-03-08T06:03:34.246Z,4.6
2018-03-08T06:04:24.333Z,4.7
2018-03-08T06:05:14.449Z,4.7
2018-03-08T06:06:04.436Z,4.8
2018-03-08T06:06:54.076Z,4.8
2018-03-08T06:07:44.257Z,4.8
2018-03-08T06:08:34.594Z,4.9
2018-03-08T06:09:24.941Z,4.9
2018-03-08T06:10:14.730Z,5
2018-03-08T06:11:04.784Z,5
2018-03-08T06:11:54.541Z,5.1
2018-03-08T06:12:44.898Z,5.1
2018-03-08T06:13:35.061Z,5.2
2018-03-08T06:14:24.987Z,5.2
2018-03-08T06:15:15.347Z,5.3
2018-03-08T06:16:05.129Z,5.3
2018-03-08T06:16:54.888Z,5.4
2018-03-08T06:17:45.264Z,5.5
2018-03-08T06:18:35.088Z,5.6
2018-03-08T06:19:25.087Z,5.6
2018-03-08T06:20:15.429Z,5.8
2018-03-08T06:21:05.293Z,5.9
2018-03-08T06:21:55.264Z,5.9
2018-03-08T06:22:45.307Z,6.1
2018-03-08T06:23:35.952Z,6.2
2018-03-08T06:24:26.046Z,6.3
2018-03-08T06:25:16.038Z,6.4
2018-03-08T06:26:06.143Z,6.5
2018-03-08T06:26:56.155Z,6.6
2018-03-08T06:27:46.201Z,6.7
2018-03-08T06:28:36.285Z,6.8
2018-03-08T06:29:26.032Z,6.9
2018-03-08T06:30:16.386Z,6.9
2018-03-08T06:31:05.888Z,7
2018-03-08T06:31:56.494Z,7.1
2018-03-08T06:32:46.286Z,7.1
2018-03-08T06:33:36.635Z,7.2
2018-03-08T06:34:26.712Z,7.3
2018-03-08T06:35:16.444Z,7.3
2018-03-08T06:36:06.791Z,7.4
2018-03-08T06:36:56.869Z,7.5
2018-03-08T06:37:46.904Z,7.5
2018-03-08T06:38:36.954Z,7.6
2018-03-08T18:44:56.473Z,6.1
2018-03-08T18:45:46.317Z,6.1
2018-03-08T18:46:36.357Z,6.1
2018-03-08T18:47:26.609Z,6
2018-03-08T18:48:16.802Z,6
2018-03-08T18:49:06.321Z,6
2018-03-08T18:49:56.856Z,6
2018-03-08T18:50:46.537Z,5.9
2018-03-08T18:51:36.407Z,5.9
2018-03-08T18:52:27.311Z,5.9
2018-03-08T18:53:17.359Z,5.9
2018-03-08T18:54:07.151Z,5.9
2018-03-08T18:54:57.225Z,5.9
2018-03-08T18:55:47.535Z,5.9
2018-03-08T18:56:37.332Z,5.9
2018-03-08T18:57:27.386Z,5.9
2018-03-08T18:58:17.434Z,5.8
2018-03-08T18:59:07.018Z,5.8
2018-03-08T18:59:56.993Z,5.8
2018-03-08T19:00:47.643Z,5.8
2018-03-08T19:01:37.685Z,5.8
2018-03-08T19:02:27.536Z,5.8
2018-03-08T19:03:17.309Z,5.8
2018-03-08T19:04:07.555Z,5.8
2018-03-08T19:04:57.903Z,5.8
2018-03-08T19:05:47.700Z,5.8
2018-03-08T19:06:37.752Z,5.8
2018-03-08T19:07:28.396Z,5.8
2018-03-08T19:08:17.855Z,5.8
2018-03-08T19:09:07.921Z,5.8
2018-03-08T19:09:58.257Z,5.8
2018-03-08T19:10:47.922Z,5.8
2018-03-08T19:11:38.635Z,5.8
2018-03-08T19:12:27.958Z,5.8
2018-03-08T19:13:18.484Z,5.8
2018-03-08T19:14:08.065Z,5.8
2018-03-08T19:14:58.929Z,5.7
2018-03-08T19:15:48.251Z,5.7
2018-03-08T19:16:38.508Z,5.7
2018-03-08T19:17:28.770Z,5.7
2018-03-08T19:18:18.743Z,5.7
2018-03-08T19:19:08.430Z,5.7
2018-03-08T19:19:59.252Z,5.8
2018-03-08T19:20:49.275Z,5.8
2018-03-08T19:21:38.793Z,5.7
2018-03-08T19:22:28.934Z,5.7
2018-03-08T19:23:18.918Z,5.8
2018-03-08T19:24:08.955Z,5.7
2018-03-08T19:24:59.114Z,5.7
2018-03-08T19:25:49.090Z,5.7
2018-03-08T19:26:38.950Z,5.7
2018-03-08T19:27:29.495Z,5.8
2018-03-08T19:28:19.241Z,5.7
2018-03-08T19:29:09.887Z,5.8
2018-03-08T19:29:59.937Z,5.7
2018-03-08T19:30:49.414Z,5.7
2018-03-08T19:31:39.467Z,5.7
2018-03-08T19:32:29.836Z,5.7
2018-03-08T19:33:19.602Z,5.7
2018-03-08T19:34:09.664Z,5.7
2018-03-08T19:34:59.711Z,5.7
2018-03-08T19:35:49.491Z,5.7
2018-03-08T19:36:40.493Z,5.6
2018-03-08T19:37:30.199Z,5.6
2018-03-08T19:38:20.526Z,5.6
2018-03-08T19:39:10.553Z,5.6
2018-03-08T19:40:00.607Z,5.6
2018-03-08T19:40:50.399Z,5.6
2018-03-08T19:41:40.451Z,5.6
2018-03-08T19:42:30.779Z,5.5
2018-03-08T19:43:20.300Z,5.5
2018-03-08T19:44:10.241Z,5.5
2018-03-08T19:45:00.398Z,5.4
2018-03-08T19:45:50.187Z,5.4
2018-03-08T19:46:40.823Z,5.4
2018-03-08T19:47:31.176Z,5.4
2018-03-08T19:48:20.741Z,5.3
2018-03-08T19:49:11.300Z,5.3
2018-03-08T19:50:01.098Z,5.3
2018-03-08T19:50:51.169Z,5.3
2018-03-08T19:51:41.172Z,5.3
2018-03-08T19:52:31.033Z,5.3
2018-03-08T19:53:21.258Z,5.3
2018-03-08T19:54:10.566Z,5.2
2018-03-08T19:55:01.123Z,5.2
2018-03-08T19:55:51.450Z,5.2
2018-03-08T19:56:41.231Z,5.1
2018-03-08T19:57:31.088Z,5.1
2018-03-08T19:58:21.657Z,5.1
2018-03-08T19:59:11.410Z,5.1
2018-03-08T20:00:01.863Z,5.1
2018-03-08T20:00:51.516Z,5.1
2018-03-08T20:01:42.020Z,5.1
2018-03-08T20:02:31.920Z,5.1
2018-03-08T20:03:21.690Z,5
2018-03-08T20:04:12.370Z,5
2018-03-08T20:05:02.380Z,5
2018-03-08T20:05:52.140Z,5
2018-03-08T20:06:42.194Z,4.9
2018-03-08T20:07:32.298Z,4.9
2018-03-08T20:08:22.618Z,4.9
2018-03-08T20:09:12.400Z,4.9
2018-03-08T20:10:02.717Z,4.9
2018-03-08T20:10:52.209Z,4.9
2018-03-08T20:11:42.835Z,4.9
2018-03-08T20:12:32.611Z,4.9
2018-03-08T20:13:22.657Z,4.9
2018-03-08T20:14:12.437Z,4.9
2018-03-08T20:15:03.074Z,4.9
2018-03-08T20:15:53.101Z,4.8
2018-03-08T20:16:43.187Z,4.8
2018-03-08T20:17:33.217Z,4.8
2018-03-08T20:18:23.287Z,4.8
2018-03-08T20:19:13.059Z,4.8
2018-03-08T20:20:03.474Z,4.8
2018-03-08T20:20:53.490Z,4.8
2018-03-08T20:21:42.383Z,4.8
2018-03-08T20:22:33.121Z,4.8
2018-03-08T20:23:23.357Z,4.8
2018-03-08T20:24:13.214Z,4.8
2018-03-08T20:25:02.794Z,4.8
2018-03-08T20:25:52.941Z,4.8
2018-03-08T20:26:43.598Z,4.8
2018-03-08T20:27:33.659Z,4.8
2018-03-08T20:28:23.431Z,4.8
2018-03-08T20:29:13.582Z,4.7
2018-03-08T20:30:03.851Z,4.7
2018-03-08T20:30:53.691Z,4.7
2018-03-08T20:31:43.943Z,4.7
2018-03-08T20:32:34.289Z,4.7
2018-03-08T20:33:23.869Z,4.7
2018-03-08T20:34:13.925Z,4.7
2018-03-08T20:35:04.186Z,4.7
2018-03-08T20:35:54.225Z,4.6
2018-03-08T20:36:44.567Z,4.6
2018-03-08T20:37:34.056Z,4.6
2018-03-08T20:38:24.422Z,4.6
2018-03-08T20:39:14.488Z,4.6
2018-03-08T20:40:04.245Z,4.6
2018-03-08T20:40:54.296Z,4.6
2018-03-08T20:41:44.362Z,4.6
2018-03-08T20:42:34.515Z,4.6
2018-03-08T20:43:24.268Z,4.6
2018-03-08T20:44:14.905Z,4.6
2018-03-08T20:45:05.152Z,4.6
2018-03-08T20:45:55.034Z,4.6
2018-03-08T20:46:44.416Z,4.6
2018-03-08T20:47:34.864Z,4.6
2018-03-08T20:48:24.806Z,4.6
2018-03-08T20:49:14.769Z,4.6
2018-03-08T20:50:04.645Z,4.6
2018-03-08T20:50:55.567Z,4.6
2018-03-08T20:51:44.843Z,4.6
2018-03-08T20:52:35.677Z,4.6
2018-03-08T20:53:25.167Z,4.6
2018-03-08T20:54:15.229Z,4.6
2018-03-08T20:55:05.564Z,4.6
2018-03-08T20:55:55.338Z,4.6
2018-03-08T20:56:45.771Z,4.6
2018-03-08T20:57:35.536Z,4.6
2018-03-08T20:58:25.832Z,4.6
2018-03-08T20:59:15.856Z,4.6
2018-03-08T21:00:05.927Z,4.6
2018-03-08T21:00:55.944Z,4.6
2018-03-08T21:01:45.541Z,4.6
2018-03-08T21:02:36.094Z,4.6
2018-03-08T21:03:26.063Z,4.6
2018-03-08T21:04:16.499Z,4.6
2018-03-08T21:05:05.982Z,4.6
2018-03-08T21:05:56.619Z,4.6
2018-03-08T21:06:46.409Z,4.6
2018-03-08T21:07:36.434Z,4.6
2018-03-08T21:08:26.781Z,4.6
2018-03-08T21:09:16.264Z,4.6
2018-03-08T21:10:06.112Z,4.6
2018-03-08T21:10:56.388Z,4.6
2018-03-08T21:11:46.253Z,4.6
2018-03-08T21:12:36.783Z,4.6
2018-03-08T21:13:26.530Z,4.6
2018-03-08T21:14:16.606Z,4.6
2018-03-08T21:15:06.692Z,4.6
2018-03-08T21:15:56.147Z,4.6
2018-03-08T21:16:47.069Z,4.6
2018-03-08T21:17:36.836Z,4.6
2018-03-08T21:18:27.510Z,4.6
2018-03-08T21:19:17.501Z,4.6
2018-03-08T21:20:07.570Z,4.6
2018-03-08T21:20:57.620Z,4.6
2018-03-08T21:21:47.403Z,4.6
2018-03-08T21:22:37.733Z,4.6
2018-03-08T21:23:27.809Z,4.6
2018-03-08T21:24:17.863Z,4.6
2018-03-08T21:25:07.976Z,4.6
2018-03-08T21:25:57.968Z,4.6
2018-03-08T21:26:48.044Z,4.7
2018-03-08T21:27:38.098Z,4.7
2018-03-08T21:28:28.158Z,4.7
2018-03-08T21:29:18.225Z,4.7
2018-03-08T21:30:07.987Z,4.7
2018-03-08T21:30:58.314Z,4.8
2018-03-08T21:31:48.377Z,4.8
2018-03-08T21:32:38.428Z,4.8
2018-03-08T21:33:28.228Z,4.8
2018-03-08T21:34:18.573Z,4.8
2018-03-08T21:35:08.331Z,4.8
2018-03-08T21:35:58.419Z,4.8
2018-03-08T21:36:48.724Z,4.8
2018-03-08T21:37:38.777Z,4.8
2018-03-08T21:38:28.620Z,4.9
2018-03-08T21:39:18.920Z,4.9
2018-03-08T21:40:08.966Z,4.9
2018-03-08T21:40:58.742Z,4.9
2018-03-08T21:41:49.220Z,4.9
2018-03-08T21:42:39.133Z,4.9
2018-03-08T21:43:28.635Z,4.9
2018-03-08T21:44:19.265Z,4.9
2018-03-08T21:45:08.758Z,4.9
2018-03-08T21:45:59.100Z,4.9
2018-03-08T21:46:49.177Z,4.9
2018-03-08T21:47:39.214Z,4.9
2018-03-08T21:48:29.609Z,4.9
2018-03-08T21:49:19.327Z,4.9
2018-03-08T21:50:09.719Z,4.9
2018-03-08T21:50:59.785Z,4.9
2018-03-08T21:51:49.806Z,4.9
2018-03-08T21:52:39.848Z,4.9
2018-03-08T21:53:29.887Z,4.9
2018-03-08T21:54:19.389Z,4.9
2018-03-08T21:55:10.009Z,4.9
2018-03-08T21:55:59.834Z,4.9
2018-03-08T21:56:50.141Z,5
2018-03-08T21:57:39.894Z,5
2018-03-08T21:58:29.985Z,5
2018-03-08T21:59:20.026Z,5
2018-03-08T22:00:10.394Z,5
2018-03-08T22:01:00.424Z,5
2018-03-08T22:01:50.471Z,5
2018-03-08T22:02:39.971Z,5
2018-03-08T22:03:30.304Z,5
2018-03-08T22:04:20.658Z,5
2018-03-08T22:05:10.456Z,5
2018-03-08T22:06:00.534Z,5
2018-03-08T22:06:50.551Z,5
2018-03-08T22:07:40.919Z,5
2018-03-08T22:08:30.943Z,5
2018-03-08T22:09:20.998Z,5
2018-03-08T22:10:10.478Z,5
2018-03-08T22:11:00.858Z,5
2018-03-08T22:11:51.198Z,5.1
2018-03-08T22:12:41.231Z,5.1
2018-03-08T22:13:31.308Z,5
2018-03-08T22:14:21.328Z,5
2018-03-08T22:15:11.384Z,5.1
2018-03-08T22:16:01.441Z,5.1
2018-03-08T22:16:51.518Z,5
2018-03-08T22:17:41.291Z,5.1
2018-03-08T22:18:31.612Z,5
2018-03-08T22:19:21.672Z,5
2018-03-08T22:20:11.465Z,5.1
2018-03-08T22:21:01.799Z,5.1
2018-03-08T22:21:51.904Z,5.1
2018-03-08T22:22:41.952Z,5.1
2018-03-08T22:23:31.692Z,5.1
2018-03-08T22:24:21.732Z,5.1
2018-03-08T22:25:12.099Z,5.1
2018-03-08T22:26:02.154Z,5.1
2018-03-08T22:26:52.208Z,5.1
2018-03-08T22:27:42.255Z,5.1
2018-03-08T22:28:32.062Z,5.1
2018-03-08T22:29:21.620Z,5.1
2018-03-08T22:30:11.664Z,5.1
2018-03-08T22:31:02.037Z,5.1
2018-03-08T22:31:52.354Z,5.1
2018-03-08T22:32:42.323Z,5.1
2018-03-08T22:33:32.406Z,5.1
2018-03-08T22:34:21.871Z,5.1
2018-03-08T22:35:12.811Z,5
2018-03-08T22:36:02.582Z,5.1
2018-03-08T22:36:52.655Z,5
2018-03-08T22:37:42.691Z,5
2018-03-08T22:38:32.547Z,5.1
2018-03-08T22:39:22.509Z,5.1
2018-03-08T22:40:12.966Z,5
2018-03-08T22:41:02.807Z,5
2018-03-08T22:41:53.070Z,5.1
2018-03-08T22:42:43.059Z,5.1
2018-03-08T22:43:33.416Z,5.1
2018-03-08T22:44:22.381Z,5.1
2018-03-08T22:45:12.921Z,5
2018-03-08T22:46:03.251Z,5
2018-03-08T22:46:53.101Z,5.1
2018-03-08T22:47:43.385Z,5
2018-03-08T22:48:32.956Z,5
2018-03-08T22:49:23.493Z,5
2018-03-08T22:50:13.366Z,5
2018-03-08T22:51:03.317Z,5
2018-03-08T22:51:53.684Z,5
2018-03-08T22:52:43.988Z,5
2018-03-08T22:53:33.779Z,5
2018-03-08T22:54:24.123Z,4.9
2018-03-08T22:55:14.184Z,5
2018-03-08T22:56:03.973Z,5
2018-03-08T22:56:54.291Z,5
2018-03-08T22:57:44.071Z,4.9
2018-03-08T22:58:34.124Z,4.9
2018-03-08T22:59:24.463Z,4.9
2018-03-08T23:00:13.688Z,4.9
2018-03-08T23:01:04.298Z,4.9
2018-03-08T23:01:54.642Z,4.9
2018-03-08T23:02:44.418Z,4.9
2018-03-08T23:03:34.775Z,4.9
2018-03-08T23:04:24.566Z,4.9
2018-03-08T23:05:14.930Z,4.9
2018-03-08T23:06:04.932Z,4.9
2018-03-08T23:06:54.998Z,4.9
2018-03-08T23:07:45.035Z,4.9
2018-03-08T23:08:34.843Z,4.8
2018-03-08T23:09:24.890Z,4.8
2018-03-08T23:10:15.214Z,4.8
2018-03-08T23:11:05.289Z,4.8
2018-03-08T23:11:55.075Z,4.8
2018-03-08T23:12:45.122Z,4.8
2018-03-08T23:13:35.462Z,4.8
2018-03-08T23:14:25.530Z,4.8
2018-03-08T23:15:15.015Z,4.8
2018-03-08T23:16:05.631Z,4.8
2018-03-08T23:16:55.700Z,4.8
2018-03-08T23:17:45.749Z,4.8
2018-03-08T23:18:35.527Z,4.7
2018-03-08T23:19:25.879Z,4.7
2018-03-08T23:20:15.627Z,4.7
2018-03-08T23:21:05.970Z,4.7
2018-03-08T23:21:55.747Z,4.7
2018-03-08T23:22:46.086Z,4.7
2018-03-08T23:23:36.152Z,4.6
2018-03-08T23:24:25.928Z,4.6
2018-03-08T23:25:16.261Z,4.6
2018-03-08T23:26:05.547Z,4.6
2018-03-08T23:26:55.832Z,4.6
2018-03-08T23:27:45.871Z,4.6
2018-03-08T23:28:35.995Z,4.6
2018-03-08T23:29:25.999Z,4.6
2018-03-08T23:30:16.238Z,4.6
2018-03-08T23:31:06.674Z,4.6
2018-03-08T23:31:56.538Z,4.5
2018-03-08T23:32:46.526Z,4.5
2018-03-08T23:33:36.383Z,4.5
2018-03-08T23:34:26.380Z,4.5
2018-03-08T23:35:16.506Z,4.4
2018-03-08T23:36:06.836Z,4.4
2018-03-08T23:36:56.419Z,4.4
2018-03-08T23:37:46.724Z,4.4
2018-03-08T23:38:36.638Z,4.4
2018-03-08T23:39:26.685Z,4.4